sensor_id;sensor_type;location;lat;lon;timestamp;pressure;altitude;pressure_sealevel;temperature;humidity
55424;BME280;41294;42.666;23.350;2023-03-04T00:01:13;95068.91;;;7.43;100.00
55424;BME280;41294;42.666;23.350;2023-03-04T00:03:40;95074.47;;;7.45;100.00
55424;BME280;41294;42.666;23.350;2023-03-04T00:06:05;95074.34;;;7.36;100.00
55424;BME280;41294;42.666;23.350;2023-03-04T00:08:31;95078.75;;;7.39;100.00
55424;BME280;41294;42.666;23.350;2023-03-04T00:10:56;95069.09;;;7.36;100.00
55424;BME280;41294;42.666;23.350;2023-03-04T00:13:22;95068.03;;;7.33;100.00
55424;BME280;41294;42.666;23.350;2023-03-04T00:15:48;95059.69;;;7.38;100.00
55424;BME280;41294;42.666;23.350;2023-03-04T00:18:14;95058.09;;;7.57;100.00
55424;BME280;41294;42.666;23.350;2023-03-04T00:20:39;95057.09;;;7.51;100.00
55424;BME280;41294;42.666;23.350;2023-03-04T00:23:04;95054.19;;;7.49;100.00
55424;BME280;41294;42.666;23.350;2023-03-04T00:25:30;95062.94;;;7.42;100.00
55424;BME280;41294;42.666;23.350;2023-03-04T00:27:55;95060.34;;;7.42;100.00
55424;BME280;41294;42.666;23.350;2023-03-04T00:30:22;95058.44;;;7.43;100.00
55424;BME280;41294;42.666;23.350;2023-03-04T00:32:48;95060.97;;;7.46;100.00
55424;BME280;41294;42.666;23.350;2023-03-04T00:35:13;95053.25;;;7.55;100.00
55424;BME280;41294;42.666;23.350;2023-03-04T00:37:39;95046.47;;;7.58;100.00
55424;BME280;41294;42.666;23.350;2023-03-04T00:40:05;95051.03;;;7.54;100.00
55424;BME280;41294;42.666;23.350;2023-03-04T00:42:30;95043.72;;;7.49;100.00
55424;BME280;41294;42.666;23.350;2023-03-04T00:44:55;95056.47;;;7.47;100.00
55424;BME280;41294;42.666;23.350;2023-03-04T00:47:21;95048.28;;;7.45;100.00
55424;BME280;41294;42.666;23.350;2023-03-04T00:49:46;95053.34;;;7.52;100.00
55424;BME280;41294;42.666;23.350;2023-03-04T00:52:12;95046.94;;;7.53;100.00
55424;BME280;41294;42.666;23.350;2023-03-04T00:54:37;95049.91;;;7.55;100.00
55424;BME280;41294;42.666;23.350;2023-03-04T00:57:02;95040.56;;;7.54;100.00
55424;BME280;41294;42.666;23.350;2023-03-04T00:59:28;95048.75;;;7.56;100.00
55424;BME280;41294;42.666;23.350;2023-03-04T01:01:53;95051.69;;;7.58;100.00
55424;BME280;41294;42.666;23.350;2023-03-04T01:04:18;95048.53;;;7.50;100.00
55424;BME280;41294;42.666;23.350;2023-03-04T01:06:44;95048.63;;;7.47;100.00
55424;BME280;41294;42.666;23.350;2023-03-04T01:09:09;95050.41;;;7.50;100.00
55424;BME280;41294;42.666;23.350;2023-03-04T01:11:35;95048.66;;;7.59;100.00
55424;BME280;41294;42.666;23.350;2023-03-04T01:14:00;95043.84;;;7.58;100.00
55424;BME280;41294;42.666;23.350;2023-03-04T01:16:25;95041.94;;;7.58;100.00
55424;BME280;41294;42.666;23.350;2023-03-04T01:18:51;95030.84;;;7.54;100.00
55424;BME280;41294;42.666;23.350;2023-03-04T01:21:16;95033.38;;;7.58;100.00
55424;BME280;41294;42.666;23.350;2023-03-04T01:23:42;95034.25;;;7.39;100.00
55424;BME280;41294;42.666;23.350;2023-03-04T01:26:07;95034.88;;;7.43;100.00
55424;BME280;41294;42.666;23.350;2023-03-04T01:28:32;95026.44;;;7.51;100.00
55424;BME280;41294;42.666;23.350;2023-03-04T01:31:03;95027.25;;;7.48;100.00
55424;BME280;41294;42.666;23.350;2023-03-04T01:33:29;95029.38;;;7.53;100.00
55424;BME280;41294;42.666;23.350;2023-03-04T01:35:55;95028.25;;;7.38;100.00
55424;BME280;41294;42.666;23.350;2023-03-04T01:38:21;95021.09;;;7.55;100.00
55424;BME280;41294;42.666;23.350;2023-03-04T01:40:46;95016.25;;;7.41;100.00
55424;BME280;41294;42.666;23.350;2023-03-04T01:43:18;95013.75;;;7.50;100.00
55424;BME280;41294;42.666;23.350;2023-03-04T01:45:47;95009.75;;;7.45;100.00
55424;BME280;41294;42.666;23.350;2023-03-04T01:48:13;95011.50;;;7.36;100.00
55424;BME280;41294;42.666;23.350;2023-03-04T01:50:40;95009.81;;;7.42;100.00
55424;BME280;41294;42.666;23.350;2023-03-04T01:53:09;95013.09;;;7.46;100.00
55424;BME280;41294;42.666;23.350;2023-03-04T01:55:39;95008.69;;;7.43;100.00
55424;BME280;41294;42.666;23.350;2023-03-04T01:58:09;95007.88;;;7.46;100.00
55424;BME280;41294;42.666;23.350;2023-03-04T02:00:34;94997.81;;;7.44;100.00
55424;BME280;41294;42.666;23.350;2023-03-04T02:03:04;95002.50;;;7.37;100.00
55424;BME280;41294;42.666;23.350;2023-03-04T02:05:32;95000.31;;;7.35;100.00
55424;BME280;41294;42.666;23.350;2023-03-04T02:07:59;95006.06;;;7.43;100.00
55424;BME280;41294;42.666;23.350;2023-03-04T02:10:26;95008.28;;;7.44;100.00
55424;BME280;41294;42.666;23.350;2023-03-04T02:12:52;95007.53;;;7.44;100.00
55424;BME280;41294;42.666;23.350;2023-03-04T02:15:19;94995.78;;;7.36;100.00
55424;BME280;41294;42.666;23.350;2023-03-04T02:17:44;95002.16;;;7.35;100.00
55424;BME280;41294;42.666;23.350;2023-03-04T02:23:15;95001.53;;;7.31;100.00
55424;BME280;41294;42.666;23.350;2023-03-04T02:25:50;94999.88;;;7.37;100.00
55424;BME280;41294;42.666;23.350;2023-03-04T02:28:17;94999.41;;;7.26;100.00
55424;BME280;41294;42.666;23.350;2023-03-04T02:30:43;95000.66;;;7.22;100.00
55424;BME280;41294;42.666;23.350;2023-03-04T02:33:14;94996.66;;;7.17;100.00
55424;BME280;41294;42.666;23.350;2023-03-04T02:35:41;94993.47;;;7.26;100.00
55424;BME280;41294;42.666;23.350;2023-03-04T02:38:06;94992.72;;;7.25;100.00
55424;BME280;41294;42.666;23.350;2023-03-04T02:40:32;94989.41;;;7.09;100.00
55424;BME280;41294;42.666;23.350;2023-03-04T02:42:58;94998.59;;;7.01;100.00
55424;BME280;41294;42.666;23.350;2023-03-04T02:45:49;94986.25;;;7.01;100.00
55424;BME280;41294;42.666;23.350;2023-03-04T02:48:21;94991.81;;;7.03;100.00
55424;BME280;41294;42.666;23.350;2023-03-04T02:50:52;94995.22;;;7.00;100.00
55424;BME280;41294;42.666;23.350;2023-03-04T02:53:19;94986.09;;;6.92;100.00
55424;BME280;41294;42.666;23.350;2023-03-04T02:55:46;94986.91;;;6.89;100.00
55424;BME280;41294;42.666;23.350;2023-03-04T02:58:12;94990.13;;;6.81;100.00
55424;BME280;41294;42.666;23.350;2023-03-04T03:00:38;94980.38;;;6.81;100.00
55424;BME280;41294;42.666;23.350;2023-03-04T03:03:04;94977.94;;;6.74;100.00
55424;BME280;41294;42.666;23.350;2023-03-04T03:05:32;94987.03;;;6.70;100.00
55424;BME280;41294;42.666;23.350;2023-03-04T03:07:58;94983.84;;;6.62;100.00
55424;BME280;41294;42.666;23.350;2023-03-04T03:10:24;94990.00;;;6.56;100.00
55424;BME280;41294;42.666;23.350;2023-03-04T03:12:49;94988.03;;;6.44;100.00
55424;BME280;41294;42.666;23.350;2023-03-04T03:15:15;94987.38;;;6.40;100.00
55424;BME280;41294;42.666;23.350;2023-03-04T03:17:41;94985.91;;;6.39;100.00
55424;BME280;41294;42.666;23.350;2023-03-04T03:20:08;94982.38;;;6.30;100.00
55424;BME280;41294;42.666;23.350;2023-03-04T03:22:34;94995.63;;;6.23;100.00
55424;BME280;41294;42.666;23.350;2023-03-04T03:25:00;94995.69;;;6.19;100.00
55424;BME280;41294;42.666;23.350;2023-03-04T03:27:25;94993.81;;;6.20;100.00
55424;BME280;41294;42.666;23.350;2023-03-04T03:29:51;94990.94;;;6.14;100.00
55424;BME280;41294;42.666;23.350;2023-03-04T03:32:16;94986.88;;;6.13;100.00
55424;BME280;41294;42.666;23.350;2023-03-04T03:34:41;94980.16;;;5.96;100.00
55424;BME280;41294;42.666;23.350;2023-03-04T03:37:07;94980.00;;;6.03;100.00
55424;BME280;41294;42.666;23.350;2023-03-04T03:39:32;94982.47;;;6.10;100.00
55424;BME280;41294;42.666;23.350;2023-03-04T03:41:58;94978.53;;;6.02;100.00
55424;BME280;41294;42.666;23.350;2023-03-04T03:44:23;94978.78;;;5.92;100.00
55424;BME280;41294;42.666;23.350;2023-03-04T03:46:48;94970.59;;;5.90;100.00
55424;BME280;41294;42.666;23.350;2023-03-04T03:49:14;94976.97;;;5.89;100.00
55424;BME280;41294;42.666;23.350;2023-03-04T03:51:41;94977.41;;;5.84;100.00
55424;BME280;41294;42.666;23.350;2023-03-04T03:54:07;94975.56;;;5.84;100.00
55424;BME280;41294;42.666;23.350;2023-03-04T03:56:32;94963.38;;;5.78;100.00
55424;BME280;41294;42.666;23.350;2023-03-04T03:58:57;94965.31;;;5.74;100.00
55424;BME280;41294;42.666;23.350;2023-03-04T04:01:24;94970.22;;;5.72;100.00
55424;BME280;41294;42.666;23.350;2023-03-04T04:03:49;94972.03;;;5.56;100.00
55424;BME280;41294;42.666;23.350;2023-03-04T04:06:14;94960.69;;;5.46;100.00
55424;BME280;41294;42.666;23.350;2023-03-04T04:08:40;94964.75;;;5.47;100.00
55424;BME280;41294;42.666;23.350;2023-03-04T04:11:11;94965.41;;;5.51;100.00
55424;BME280;41294;42.666;23.350;2023-03-04T04:13:37;94961.00;;;5.48;100.00
55424;BME280;41294;42.666;23.350;2023-03-04T04:16:02;94963.88;;;5.34;100.00
55424;BME280;41294;42.666;23.350;2023-03-04T04:18:28;94965.31;;;5.19;100.00
55424;BME280;41294;42.666;23.350;2023-03-04T04:20:53;94960.75;;;5.23;100.00
55424;BME280;41294;42.666;23.350;2023-03-04T04:23:19;94965.31;;;5.19;100.00
55424;BME280;41294;42.666;23.350;2023-03-04T04:25:45;94967.44;;;5.24;100.00
55424;BME280;41294;42.666;23.350;2023-03-04T04:28:10;94964.38;;;5.29;100.00
55424;BME280;41294;42.666;23.350;2023-03-04T04:30:36;94959.34;;;5.19;100.00
55424;BME280;41294;42.666;23.350;2023-03-04T04:33:01;94967.38;;;5.08;100.00
55424;BME280;41294;42.666;23.350;2023-03-04T04:35:29;94963.41;;;5.00;100.00
55424;BME280;41294;42.666;23.350;2023-03-04T04:37:55;94965.31;;;5.00;100.00
55424;BME280;41294;42.666;23.350;2023-03-04T04:40:21;94968.34;;;4.95;100.00
55424;BME280;41294;42.666;23.350;2023-03-04T04:42:46;94966.94;;;4.90;100.00
55424;BME280;41294;42.666;23.350;2023-03-04T04:45:12;94956.53;;;4.90;100.00
55424;BME280;41294;42.666;23.350;2023-03-04T04:47:37;94965.34;;;4.96;100.00
55424;BME280;41294;42.666;23.350;2023-03-04T04:50:03;94961.06;;;4.87;100.00
55424;BME280;41294;42.666;23.350;2023-03-04T04:52:28;94957.78;;;4.83;100.00
55424;BME280;41294;42.666;23.350;2023-03-04T04:54:54;94961.53;;;4.82;100.00
55424;BME280;41294;42.666;23.350;2023-03-04T04:57:19;94971.28;;;4.78;100.00
55424;BME280;41294;42.666;23.350;2023-03-04T04:59:45;94966.41;;;4.80;100.00
55424;BME280;41294;42.666;23.350;2023-03-04T05:02:10;94972.81;;;4.75;100.00
55424;BME280;41294;42.666;23.350;2023-03-04T05:04:35;94972.81;;;4.75;100.00
55424;BME280;41294;42.666;23.350;2023-03-04T05:07:01;94973.44;;;4.83;100.00
55424;BME280;41294;42.666;23.350;2023-03-04T05:09:26;94979.34;;;4.87;100.00
55424;BME280;41294;42.666;23.350;2023-03-04T05:11:52;94985.63;;;4.89;100.00
55424;BME280;41294;42.666;23.350;2023-03-04T05:14:17;94988.88;;;4.93;100.00
55424;BME280;41294;42.666;23.350;2023-03-04T05:16:43;94982.81;;;4.99;100.00
55424;BME280;41294;42.666;23.350;2023-03-04T05:19:08;94991.47;;;4.93;100.00
55424;BME280;41294;42.666;23.350;2023-03-04T05:21:34;94990.19;;;5.04;100.00
55424;BME280;41294;42.666;23.350;2023-03-04T05:23:59;94990.13;;;5.08;100.00
55424;BME280;41294;42.666;23.350;2023-03-04T05:26:24;94994.72;;;5.20;100.00
55424;BME280;41294;42.666;23.350;2023-03-04T05:28:50;94996.41;;;5.30;100.00
55424;BME280;41294;42.666;23.350;2023-03-04T05:31:15;94992.31;;;5.29;100.00
55424;BME280;41294;42.666;23.350;2023-03-04T05:33:42;95004.50;;;5.35;100.00
55424;BME280;41294;42.666;23.350;2023-03-04T05:36:08;95010.84;;;5.34;100.00
55424;BME280;41294;42.666;23.350;2023-03-04T05:38:34;95004.38;;;5.42;100.00
55424;BME280;41294;42.666;23.350;2023-03-04T05:41:03;95005.31;;;5.52;100.00
55424;BME280;41294;42.666;23.350;2023-03-04T05:43:29;95008.00;;;5.48;100.00
55424;BME280;41294;42.666;23.350;2023-03-04T05:45:55;95007.50;;;5.53;100.00
55424;BME280;41294;42.666;23.350;2023-03-04T05:48:21;95006.91;;;5.65;100.00
55424;BME280;41294;42.666;23.350;2023-03-04T05:50:46;95007.38;;;5.60;100.00
55424;BME280;41294;42.666;23.350;2023-03-04T05:53:16;95006.69;;;5.75;100.00
55424;BME280;41294;42.666;23.350;2023-03-04T05:55:45;95009.78;;;5.90;100.00
55424;BME280;41294;42.666;23.350;2023-03-04T05:58:11;95018.69;;;6.08;100.00
55424;BME280;41294;42.666;23.350;2023-03-04T06:00:36;95018.97;;;6.14;100.00
55424;BME280;41294;42.666;23.350;2023-03-04T06:03:02;95018.63;;;6.12;100.00
55424;BME280;41294;42.666;23.350;2023-03-04T06:05:27;95023.13;;;6.11;100.00
55424;BME280;41294;42.666;23.350;2023-03-04T06:07:53;95020.69;;;6.20;100.00
55424;BME280;41294;42.666;23.350;2023-03-04T06:10:18;95021.25;;;6.28;100.00
55424;BME280;41294;42.666;23.350;2023-03-04T06:12:44;95019.66;;;6.50;100.00
55424;BME280;41294;42.666;23.350;2023-03-04T06:15:10;95028.63;;;6.49;100.00
55424;BME280;41294;42.666;23.350;2023-03-04T06:17:37;95031.25;;;6.49;100.00
55424;BME280;41294;42.666;23.350;2023-03-04T06:20:03;95033.38;;;6.53;100.00
55424;BME280;41294;42.666;23.350;2023-03-04T06:22:31;95024.22;;;6.61;100.00
55424;BME280;41294;42.666;23.350;2023-03-04T06:24:56;95022.66;;;6.64;100.00
55424;BME280;41294;42.666;23.350;2023-03-04T06:27:21;95021.28;;;6.59;100.00
55424;BME280;41294;42.666;23.350;2023-03-04T06:29:47;95028.28;;;6.62;100.00
55424;BME280;41294;42.666;23.350;2023-03-04T06:32:12;95020.13;;;6.76;100.00
55424;BME280;41294;42.666;23.350;2023-03-04T06:34:37;95023.22;;;6.87;100.00
55424;BME280;41294;42.666;23.350;2023-03-04T06:37:03;95026.97;;;7.02;100.00
55424;BME280;41294;42.666;23.350;2023-03-04T06:39:28;95031.69;;;7.07;100.00
55424;BME280;41294;42.666;23.350;2023-03-04T06:41:54;95032.31;;;6.83;100.00
55424;BME280;41294;42.666;23.350;2023-03-04T06:44:19;95036.75;;;6.98;100.00
55424;BME280;41294;42.666;23.350;2023-03-04T06:46:44;95034.44;;;7.16;100.00
55424;BME280;41294;42.666;23.350;2023-03-04T06:49:10;95039.47;;;7.39;100.00
55424;BME280;41294;42.666;23.350;2023-03-04T06:51:35;95042.22;;;7.48;100.00
55424;BME280;41294;42.666;23.350;2023-03-04T06:54:01;95043.06;;;7.45;100.00
55424;BME280;41294;42.666;23.350;2023-03-04T06:56:27;95038.00;;;7.10;100.00
55424;BME280;41294;42.666;23.350;2023-03-04T06:58:52;95035.41;;;6.62;100.00
55424;BME280;41294;42.666;23.350;2023-03-04T07:01:23;95038.28;;;6.67;100.00
55424;BME280;41294;42.666;23.350;2023-03-04T07:03:51;95043.81;;;6.85;100.00
55424;BME280;41294;42.666;23.350;2023-03-04T07:06:20;95047.84;;;6.74;100.00
55424;BME280;41294;42.666;23.350;2023-03-04T07:08:46;95043.16;;;6.81;100.00
55424;BME280;41294;42.666;23.350;2023-03-04T07:11:11;95052.41;;;6.70;100.00
55424;BME280;41294;42.666;23.350;2023-03-04T07:13:37;95043.06;;;6.85;100.00
55424;BME280;41294;42.666;23.350;2023-03-04T07:16:08;95044.53;;;6.86;100.00
55424;BME280;41294;42.666;23.350;2023-03-04T07:18:35;95051.34;;;6.83;100.00
55424;BME280;41294;42.666;23.350;2023-03-04T07:21:00;95048.69;;;6.99;100.00
55424;BME280;41294;42.666;23.350;2023-03-04T07:23:26;95052.72;;;7.04;99.67
55424;BME280;41294;42.666;23.350;2023-03-04T07:25:52;95054.50;;;7.07;99.57
55424;BME280;41294;42.666;23.350;2023-03-04T07:28:17;95053.13;;;7.02;98.36
55424;BME280;41294;42.666;23.350;2023-03-04T07:30:43;95058.94;;;7.10;98.86
55424;BME280;41294;42.666;23.350;2023-03-04T07:33:09;95048.16;;;7.36;97.42
55424;BME280;41294;42.666;23.350;2023-03-04T07:35:34;95045.34;;;7.43;96.47
55424;BME280;41294;42.666;23.350;2023-03-04T07:38:00;95047.78;;;7.50;96.84
55424;BME280;41294;42.666;23.350;2023-03-04T07:40:25;95049.75;;;7.46;96.16
55424;BME280;41294;42.666;23.350;2023-03-04T07:42:53;95054.00;;;7.56;94.84
55424;BME280;41294;42.666;23.350;2023-03-04T07:45:18;95055.38;;;7.60;95.24
55424;BME280;41294;42.666;23.350;2023-03-04T07:47:44;95044.72;;;7.80;95.18
55424;BME280;41294;42.666;23.350;2023-03-04T07:50:10;95044.63;;;7.96;94.06
55424;BME280;41294;42.666;23.350;2023-03-04T07:52:41;95050.78;;;8.18;92.76
55424;BME280;41294;42.666;23.350;2023-03-04T07:55:07;95047.75;;;8.31;93.06
55424;BME280;41294;42.666;23.350;2023-03-04T07:57:32;95039.38;;;8.36;91.84
55424;BME280;41294;42.666;23.350;2023-03-04T07:59:58;95048.91;;;8.30;91.11
55424;BME280;41294;42.666;23.350;2023-03-04T08:02:23;95042.19;;;8.29;91.01
55424;BME280;41294;42.666;23.350;2023-03-04T08:04:49;95051.63;;;8.39;90.65
55424;BME280;41294;42.666;23.350;2023-03-04T08:07:14;95043.47;;;8.50;89.86
55424;BME280;41294;42.666;23.350;2023-03-04T08:09:40;95049.44;;;8.38;88.89
55424;BME280;41294;42.666;23.350;2023-03-04T08:12:05;95040.63;;;7.38;92.74
55424;BME280;41294;42.666;23.350;2023-03-04T08:14:31;95041.69;;;6.80;98.34
55424;BME280;41294;42.666;23.350;2023-03-04T08:16:56;95043.50;;;6.67;100.00
55424;BME280;41294;42.666;23.350;2023-03-04T08:19:22;95048.94;;;7.05;98.12
55424;BME280;41294;42.666;23.350;2023-03-04T08:21:47;95038.69;;;6.82;99.30
55424;BME280;41294;42.666;23.350;2023-03-04T08:24:12;95039.75;;;6.84;99.42
55424;BME280;41294;42.666;23.350;2023-03-04T08:26:41;95038.25;;;6.83;100.00
55424;BME280;41294;42.666;23.350;2023-03-04T08:29:13;95041.00;;;7.08;98.41
55424;BME280;41294;42.666;23.350;2023-03-04T08:31:39;95042.13;;;7.23;98.06
55424;BME280;41294;42.666;23.350;2023-03-04T08:34:05;95032.97;;;7.31;98.28
55424;BME280;41294;42.666;23.350;2023-03-04T08:36:31;95037.34;;;7.62;96.38
55424;BME280;41294;42.666;23.350;2023-03-04T08:38:57;95038.00;;;7.38;97.08
55424;BME280;41294;42.666;23.350;2023-03-04T08:41:22;95034.41;;;6.88;99.52
55424;BME280;41294;42.666;23.350;2023-03-04T08:43:50;95036.31;;;6.87;100.00
55424;BME280;41294;42.666;23.350;2023-03-04T08:46:15;95031.81;;;7.16;99.28
55424;BME280;41294;42.666;23.350;2023-03-04T08:48:41;95042.66;;;7.02;100.00
55424;BME280;41294;42.666;23.350;2023-03-04T08:51:11;95032.13;;;7.34;99.51
55424;BME280;41294;42.666;23.350;2023-03-04T08:53:38;95031.84;;;7.85;97.81
55424;BME280;41294;42.666;23.350;2023-03-04T08:56:05;95032.97;;;7.31;98.35
55424;BME280;41294;42.666;23.350;2023-03-04T08:58:31;95022.38;;;7.06;100.00
55424;BME280;41294;42.666;23.350;2023-03-04T09:00:58;95032.97;;;7.15;99.95
55424;BME280;41294;42.666;23.350;2023-03-04T09:03:24;95024.84;;;7.54;97.47
55424;BME280;41294;42.666;23.350;2023-03-04T09:05:49;95024.97;;;7.63;96.53
55424;BME280;41294;42.666;23.350;2023-03-04T09:08:15;95025.59;;;8.08;93.96
55424;BME280;41294;42.666;23.350;2023-03-04T09:10:42;95021.97;;;7.77;94.32
55424;BME280;41294;42.666;23.350;2023-03-04T09:13:07;95025.28;;;8.43;92.38
55424;BME280;41294;42.666;23.350;2023-03-04T09:15:36;95016.03;;;8.01;90.64
55424;BME280;41294;42.666;23.350;2023-03-04T09:18:02;95013.53;;;8.10;91.13
55424;BME280;41294;42.666;23.350;2023-03-04T09:20:29;95018.06;;;8.34;90.03
55424;BME280;41294;42.666;23.350;2023-03-04T09:22:54;95013.13;;;8.49;88.84
55424;BME280;41294;42.666;23.350;2023-03-04T09:25:20;95000.28;;;8.76;88.21
55424;BME280;41294;42.666;23.350;2023-03-04T09:27:45;95000.94;;;9.01;86.47
55424;BME280;41294;42.666;23.350;2023-03-04T09:30:11;94997.06;;;9.48;84.58
55424;BME280;41294;42.666;23.350;2023-03-04T09:32:36;94993.84;;;9.66;82.96
55424;BME280;41294;42.666;23.350;2023-03-04T09:35:02;95000.72;;;9.93;81.95
55424;BME280;41294;42.666;23.350;2023-03-04T09:37:27;94994.44;;;10.21;80.50
55424;BME280;41294;42.666;23.350;2023-03-04T09:39:53;94992.31;;;10.47;80.25
55424;BME280;41294;42.666;23.350;2023-03-04T09:42:29;94993.97;;;10.62;77.73
55424;BME280;41294;42.666;23.350;2023-03-04T09:44:59;94989.59;;;10.68;77.61
55424;BME280;41294;42.666;23.350;2023-03-04T09:47:25;94990.38;;;10.86;77.16
55424;BME280;41294;42.666;23.350;2023-03-04T09:49:55;94986.06;;;10.53;74.92
55424;BME280;41294;42.666;23.350;2023-03-04T09:55:20;94984.84;;;9.76;79.24
55424;BME280;41294;42.666;23.350;2023-03-04T09:57:52;94984.47;;;9.86;77.83
55424;BME280;41294;42.666;23.350;2023-03-04T10:05:30;94976.16;;;9.02;80.25
55424;BME280;41294;42.666;23.350;2023-03-04T10:08:23;94974.50;;;9.29;79.80
55424;BME280;41294;42.666;23.350;2023-03-04T10:10:45;94968.31;;;9.45;78.95
55424;BME280;41294;42.666;23.350;2023-03-04T10:13:17;94965.56;;;9.27;80.56
55424;BME280;41294;42.666;23.350;2023-03-04T10:15:48;94965.28;;;9.77;80.40
55424;BME280;41294;42.666;23.350;2023-03-04T10:18:23;94959.34;;;10.15;78.74
55424;BME280;41294;42.666;23.350;2023-03-04T10:23:20;94951.38;;;9.46;80.06
55424;BME280;41294;42.666;23.350;2023-03-04T10:25:46;94954.91;;;9.73;79.42
55424;BME280;41294;42.666;23.350;2023-03-04T10:28:20;94956.28;;;9.56;78.89
55424;BME280;41294;42.666;23.350;2023-03-04T10:33:33;94947.47;;;9.07;82.12
55424;BME280;41294;42.666;23.350;2023-03-04T10:38:32;94941.63;;;10.07;79.11
55424;BME280;41294;42.666;23.350;2023-03-04T10:40:59;94928.31;;;9.71;79.51
55424;BME280;41294;42.666;23.350;2023-03-04T10:43:25;94930.13;;;10.22;77.65
55424;BME280;41294;42.666;23.350;2023-03-04T10:45:56;94924.16;;;10.31;76.83
55424;BME280;41294;42.666;23.350;2023-03-04T10:48:27;94922.31;;;10.58;75.67
55424;BME280;41294;42.666;23.350;2023-03-04T10:50:53;94917.97;;;10.73;74.78
55424;BME280;41294;42.666;23.350;2023-03-04T10:53:29;94907.97;;;10.59;74.85
55424;BME280;41294;42.666;23.350;2023-03-04T10:55:57;94918.53;;;10.02;77.34
55424;BME280;41294;42.666;23.350;2023-03-04T10:58:23;94901.94;;;10.23;77.63
55424;BME280;41294;42.666;23.350;2023-03-04T11:01:04;94905.16;;;10.36;75.91
55424;BME280;41294;42.666;23.350;2023-03-04T11:03:33;94902.47;;;10.66;75.26
55424;BME280;41294;42.666;23.350;2023-03-04T11:08:29;94895.78;;;9.47;78.39
55424;BME280;41294;42.666;23.350;2023-03-04T11:10:54;94892.16;;;9.23;80.89
55424;BME280;41294;42.666;23.350;2023-03-04T11:13:25;94884.97;;;9.76;79.32
55424;BME280;41294;42.666;23.350;2023-03-04T11:21:14;94875.97;;;10.34;76.86
55424;BME280;41294;42.666;23.350;2023-03-04T11:23:58;94864.41;;;10.58;74.94
55424;BME280;41294;42.666;23.350;2023-03-04T11:29:10;94864.19;;;9.60;78.94
55424;BME280;41294;42.666;23.350;2023-03-04T11:40:00;94849.19;;;10.89;74.09
55424;BME280;41294;42.666;23.350;2023-03-04T11:42:48;94842.03;;;10.71;73.45
55424;BME280;41294;42.666;23.350;2023-03-04T11:45:19;94841.00;;;10.24;75.52
55424;BME280;41294;42.666;23.350;2023-03-04T12:06:39;94814.41;;;10.67;74.90
55424;BME280;41294;42.666;23.350;2023-03-04T12:25:15;94805.38;;;11.18;72.69
55424;BME280;41294;42.666;23.350;2023-03-04T12:30:39;94793.91;;;11.39;72.35
55424;BME280;41294;42.666;23.350;2023-03-04T12:36:09;94798.69;;;11.49;72.22
55424;BME280;41294;42.666;23.350;2023-03-04T12:38:59;94796.06;;;11.49;71.62
55424;BME280;41294;42.666;23.350;2023-03-04T12:41:37;94791.28;;;11.39;71.39
55424;BME280;41294;42.666;23.350;2023-03-04T12:44:15;94789.75;;;11.15;72.46
55424;BME280;41294;42.666;23.350;2023-03-04T12:54:57;94773.47;;;11.16;72.86
55424;BME280;41294;42.666;23.350;2023-03-04T12:57:26;94766.97;;;11.35;72.41
55424;BME280;41294;42.666;23.350;2023-03-04T13:06:09;94757.16;;;11.03;72.56
55424;BME280;41294;42.666;23.350;2023-03-04T13:08:52;94755.88;;;11.31;72.50
55424;BME280;41294;42.666;23.350;2023-03-04T13:18:59;94739.97;;;10.75;73.64
55424;BME280;41294;42.666;23.350;2023-03-04T13:21:27;94745.03;;;10.97;73.28
55424;BME280;41294;42.666;23.350;2023-03-04T13:23:53;94741.75;;;10.61;73.64
55424;BME280;41294;42.666;23.350;2023-03-04T13:26:27;94740.53;;;10.70;74.17
55424;BME280;41294;42.666;23.350;2023-03-04T13:29:09;94733.31;;;10.98;73.58
55424;BME280;41294;42.666;23.350;2023-03-04T13:34:51;94738.47;;;10.83;73.63
55424;BME280;41294;42.666;23.350;2023-03-04T13:37:34;94740.31;;;10.33;75.32
55424;BME280;41294;42.666;23.350;2023-03-04T13:42:45;94731.97;;;10.52;75.30
55424;BME280;41294;42.666;23.350;2023-03-04T13:45:42;94726.44;;;10.05;77.34
55424;BME280;41294;42.666;23.350;2023-03-04T13:48:31;94727.31;;;10.20;77.22
55424;BME280;41294;42.666;23.350;2023-03-04T13:51:00;94729.63;;;9.91;77.49
55424;BME280;41294;42.666;23.350;2023-03-04T13:53:41;94721.13;;;9.78;77.88
55424;BME280;41294;42.666;23.350;2023-03-04T13:56:30;94716.59;;;9.79;79.00
55424;BME280;41294;42.666;23.350;2023-03-04T14:06:41;94713.00;;;10.21;77.93
55424;BME280;41294;42.666;23.350;2023-03-04T14:09:22;94705.38;;;10.32;77.58
55424;BME280;41294;42.666;23.350;2023-03-04T14:11:50;94711.38;;;10.42;76.17
55424;BME280;41294;42.666;23.350;2023-03-04T14:14:22;94707.13;;;10.44;76.37
55424;BME280;41294;42.666;23.350;2023-03-04T14:16:50;94702.41;;;10.66;76.14
55424;BME280;41294;42.666;23.350;2023-03-04T14:21:46;94701.88;;;10.94;74.72
55424;BME280;41294;42.666;23.350;2023-03-04T14:24:19;94693.38;;;10.90;74.72
55424;BME280;41294;42.666;23.350;2023-03-04T14:26:46;94699.75;;;11.07;74.84
55424;BME280;41294;42.666;23.350;2023-03-04T14:29:27;94697.38;;;10.77;74.72
55424;BME280;41294;42.666;23.350;2023-03-04T14:31:54;94694.53;;;10.57;76.06
55424;BME280;41294;42.666;23.350;2023-03-04T14:34:31;94691.63;;;10.46;76.85
55424;BME280;41294;42.666;23.350;2023-03-04T14:36:58;94684.84;;;10.72;75.97
55424;BME280;41294;42.666;23.350;2023-03-04T14:39:27;94682.69;;;10.94;75.02
55424;BME280;41294;42.666;23.350;2023-03-04T14:41:54;94681.66;;;11.00;74.51
55424;BME280;41294;42.666;23.350;2023-03-04T14:44:34;94684.38;;;10.73;74.59
55424;BME280;41294;42.666;23.350;2023-03-04T14:47:32;94680.28;;;10.72;75.33
55424;BME280;41294;42.666;23.350;2023-03-04T14:49:59;94678.22;;;10.85;74.59
55424;BME280;41294;42.666;23.350;2023-03-04T14:52:41;94676.00;;;10.84;74.99